Time;durP1;ratioP1;P1;durP2;ratioP2;P2;SDS_P1;SDS_P2;PMS_P1;PMS_P2;Temp;Humidity;BMP_temperature;BMP_pressure;BME280_temperature;BME280_humidity;BME280_pressure;Samples;Min_cycle;Max_cycle;Signal;HPM_P1;HPM_P2
2022/04/29 00:02:07;;;;;;;9.18;5.07;;;7.00;79.20;;;;;;5082090;27;20035;-82
2022/04/29 00:04:33;;;;;;;8.55;5.05;;;6.90;79.30;;;;;;5116157;27;20058;-80
2022/04/29 00:06:59;;;;;;;8.60;5.60;;;7.00;79.60;;;;;;5082447;27;20047;-81
2022/04/29 00:09:25;;;;;;;8.27;4.72;;;6.90;79.60;;;;;;5099373;27;20125;-83
2022/04/29 00:11:51;;;;;;;17.25;5.07;;;6.80;79.40;;;;;;5082412;27;20547;-81
2022/04/29 00:14:17;;;;;;;9.35;4.60;;;6.80;79.70;;;;;;5099537;27;20043;-81
2022/04/29 00:16:43;;;;;;;10.60;4.75;;;6.80;79.80;;;;;;5082403;27;20043;-83
2022/04/29 00:19:09;;;;;;;11.00;4.82;;;6.80;79.80;;;;;;5116058;28;20046;-82
2022/04/29 00:21:35;;;;;;;9.50;5.30;;;6.80;80.00;;;;;;5099267;28;20042;-82
2022/04/29 00:24:00;;;;;;;7.97;4.80;;;6.70;79.90;;;;;;5099007;28;20039;-82
2022/04/29 00:26:26;;;;;;;5.60;4.65;;;6.70;80.10;;;;;;5098943;28;20100;-80
2022/04/29 00:28:52;;;;;;;10.27;5.30;;;6.70;80.40;;;;;;5098451;28;20038;-83
2022/04/29 00:31:17;;;;;;;6.90;4.75;;;6.60;80.20;;;;;;5098700;28;20084;-81
2022/04/29 00:33:43;;;;;;;9.70;6.53;;;6.60;80.40;;;;;;5098669;28;20674;-81
2022/04/29 00:36:09;;;;;;;8.32;5.05;;;6.60;80.20;;;;;;5098935;28;20548;-82
2022/04/29 00:38:34;;;;;;;10.85;5.57;;;6.60;80.10;;;;;;5082343;28;20057;-81
2022/04/29 00:41:00;;;;;;;9.77;5.20;;;6.50;80.40;;;;;;5116495;27;20042;-83
2022/04/29 00:43:26;;;;;;;10.75;5.30;;;6.50;80.20;;;;;;5120050;27;20578;-79
2022/04/29 00:45:52;;;;;;;10.07;5.75;;;6.50;80.50;;;;;;5119923;27;20043;-81
2022/04/29 00:48:18;;;;;;;10.45;5.28;;;6.60;80.30;;;;;;5102961;27;20035;-82
2022/04/29 00:50:44;;;;;;;10.98;5.00;;;6.50;80.50;;;;;;5119820;27;20039;-79
2022/04/29 00:53:12;;;;;;;12.05;5.45;;;6.50;80.30;;;;;;5120055;27;20088;-81
2022/04/29 00:55:39;;;;;;;8.48;5.20;;;6.50;80.30;;;;;;5085998;27;20087;-82
2022/04/29 00:58:08;;;;;;;8.20;4.93;;;6.50;80.70;;;;;;5102720;27;20080;-79
2022/04/29 01:00:34;;;;;;;9.20;5.15;;;6.50;80.70;;;;;;5119531;27;20050;-80
2022/04/29 01:03:02;;;;;;;10.05;5.35;;;6.50;81.00;;;;;;5119650;27;20483;-84
2022/04/29 01:05:28;;;;;;;9.50;4.95;;;6.50;80.70;;;;;;5085954;27;20043;-82
2022/04/29 01:07:54;;;;;;;9.88;5.63;;;6.50;80.80;;;;;;5119450;27;20042;-82
2022/04/29 01:10:21;;;;;;;11.00;5.72;;;6.50;80.80;;;;;;5102625;27;20027;-80
2022/04/29 01:12:50;;;;;;;11.65;6.32;;;6.50;80.60;;;;;;5102411;27;20088;-82
2022/04/29 01:15:20;;;;;;;8.65;4.80;;;6.50;80.70;;;;;;5102124;27;20038;-82
2022/04/29 01:17:48;;;;;;;10.70;5.53;;;6.60;80.80;;;;;;5086334;27;20104;-80
2022/04/29 01:20:19;;;;;;;6.82;4.43;;;6.50;80.80;;;;;;5119223;27;20043;-82
2022/04/29 01:22:45;;;;;;;9.02;5.10;;;6.60;80.70;;;;;;5102359;27;20038;-82
2022/04/29 01:25:12;;;;;;;8.02;4.97;;;6.60;80.90;;;;;;5102436;27;20039;-83
2022/04/29 01:27:38;;;;;;;9.45;5.00;;;6.60;80.70;;;;;;5102499;27;20041;-82
2022/04/29 01:30:10;;;;;;;8.68;5.25;;;6.70;80.80;;;;;;5081536;28;20043;-82
2022/04/29 01:32:39;;;;;;;9.30;5.53;;;6.70;80.70;;;;;;5098702;28;20036;-82
2022/04/29 01:35:08;;;;;;;7.90;4.88;;;6.70;81.10;;;;;;5099153;28;20492;-80
2022/04/29 01:37:34;;;;;;;9.52;5.65;;;6.60;80.70;;;;;;5115566;28;20101;-81
2022/04/29 01:40:00;;;;;;;8.05;5.50;;;6.60;80.80;;;;;;5081657;28;20446;-81
2022/04/29 01:42:26;;;;;;;7.65;5.28;;;6.60;81.00;;;;;;5098713;28;20126;-83
2022/04/29 01:44:53;;;;;;;8.90;5.38;;;6.60;80.70;;;;;;5098359;28;20130;-81
2022/04/29 01:47:18;;;;;;;6.78;4.38;;;6.60;80.70;;;;;;5115339;28;20044;-83
2022/04/29 01:49:44;;;;;;;8.77;4.07;;;6.60;80.80;;;;;;5098321;28;20149;-82
2022/04/29 01:52:10;;;;;;;6.88;4.63;;;6.60;80.90;;;;;;5081683;28;20071;-80
2022/04/29 01:54:36;;;;;;;9.55;5.85;;;6.60;80.80;;;;;;5097468;28;20075;-83
2022/04/29 01:57:03;;;;;;;7.00;4.35;;;6.60;80.80;;;;;;5098139;28;20051;-81
2022/04/29 01:59:30;;;;;;;10.13;5.53;;;6.60;80.70;;;;;;5081704;28;20397;-82
2022/04/29 02:01:57;;;;;;;8.95;4.78;;;6.60;80.70;;;;;;5081562;28;20400;-82
2022/04/29 02:04:22;;;;;;;6.10;4.93;;;6.60;80.80;;;;;;5081292;28;20046;-82
2022/04/29 02:06:48;;;;;;;7.45;5.35;;;6.60;80.90;;;;;;5081088;28;20040;-82
2022/04/29 02:09:14;;;;;;;6.90;4.78;;;6.60;80.60;;;;;;5114680;28;20088;-78
2022/04/29 02:11:39;;;;;;;9.25;5.25;;;6.60;81.00;;;;;;5080704;28;20498;-80
2022/04/29 02:14:05;;;;;;;7.13;4.90;;;6.60;80.80;;;;;;5097980;28;20046;-80
2022/04/29 02:16:31;;;;;;;9.68;5.78;;;6.60;81.00;;;;;;5081436;28;20429;-81
2022/04/29 02:18:57;;;;;;;11.10;5.63;;;6.60;81.10;;;;;;5097764;28;20035;-81
2022/04/29 02:21:22;;;;;;;10.25;6.15;;;6.50;80.80;;;;;;5114911;28;20054;-82
2022/04/29 02:23:48;;;;;;;11.60;5.85;;;6.50;80.90;;;;;;5081150;28;20043;-80
2022/04/29 02:26:14;;;;;;;11.20;6.05;;;6.50;81.20;;;;;;5080961;28;20044;-79
2022/04/29 02:28:39;;;;;;;13.85;5.55;;;6.40;81.50;;;;;;5097626;28;20031;-81
2022/04/29 02:31:05;;;;;;;8.25;5.15;;;6.40;81.30;;;;;;5080528;28;20134;-82
2022/04/29 02:33:31;;;;;;;9.35;4.63;;;6.40;81.80;;;;;;5097543;28;20497;-81
2022/04/29 02:35:57;;;;;;;11.43;6.57;;;6.40;81.20;;;;;;5114414;28;20040;-79
2022/04/29 02:38:22;;;;;;;6.93;4.63;;;6.40;81.10;;;;;;5114353;28;20070;-81
2022/04/29 02:40:51;;;;;;;8.65;5.72;;;6.40;81.30;;;;;;5114282;28;20035;-81
2022/04/29 02:43:18;;;;;;;10.80;5.60;;;6.40;81.50;;;;;;5097219;28;20039;-80
2022/04/29 02:45:44;;;;;;;7.88;5.30;;;6.30;81.70;;;;;;5114274;28;20039;-80
2022/04/29 02:48:10;;;;;;;8.52;5.85;;;6.30;81.50;;;;;;5114103;28;20039;-81
2022/04/29 02:50:36;;;;;;;11.02;5.93;;;6.20;81.40;;;;;;5080554;28;20379;-81
2022/04/29 02:53:02;;;;;;;8.40;6.03;;;6.20;81.80;;;;;;5097685;28;20109;-81
2022/04/29 02:55:28;;;;;;;7.28;5.22;;;6.30;81.90;;;;;;5080609;28;20047;-81
2022/04/29 02:57:53;;;;;;;11.07;5.88;;;6.30;81.70;;;;;;5080358;28;20391;-81
2022/04/29 03:00:19;;;;;;;10.15;5.50;;;6.30;82.00;;;;;;5096932;28;20046;-82
2022/04/29 03:02:45;;;;;;;7.28;5.50;;;6.40;82.40;;;;;;5097164;28;20039;-83
2022/04/29 03:05:11;;;;;;;8.52;5.60;;;6.30;82.30;;;;;;5096253;28;20039;-82
2022/04/29 03:07:36;;;;;;;11.93;6.22;;;6.40;82.20;;;;;;5096775;28;20069;-81
2022/04/29 03:10:03;;;;;;;12.60;6.70;;;6.40;82.10;;;;;;5096737;28;20399;-83
2022/04/29 03:12:29;;;;;;;7.55;5.95;;;6.40;81.80;;;;;;5113639;28;20039;-81
2022/04/29 03:15:15;;;;;;;8.75;5.30;;;6.40;81.80;;;;;;5096866;28;20093;-81
2022/04/29 03:20:24;;;;;;;9.30;6.00;;;6.50;81.90;;;;;;5113763;28;20452;-81
2022/04/29 03:22:51;;;;;;;11.20;5.78;;;6.50;81.60;;;;;;5079697;28;20039;-81
2022/04/29 03:25:16;;;;;;;9.15;6.40;;;6.50;81.50;;;;;;5079748;28;20092;-77
2022/04/29 03:27:42;;;;;;;8.02;6.47;;;6.60;81.40;;;;;;5113433;28;20035;-81
2022/04/29 03:30:09;;;;;;;6.72;5.90;;;6.60;81.60;;;;;;5096303;28;20110;-81
2022/04/29 03:32:34;;;;;;;8.70;6.07;;;6.60;81.80;;;;;;5079406;28;20079;-81
2022/04/29 03:35:00;;;;;;;11.32;6.30;;;6.60;81.40;;;;;;5079683;28;20078;-83
2022/04/29 03:37:26;;;;;;;11.93;6.43;;;6.60;81.50;;;;;;5096375;28;20054;-80
2022/04/29 03:39:53;;;;;;;8.07;5.82;;;6.60;81.60;;;;;;5113114;28;20044;-80
2022/04/29 03:42:19;;;;;;;11.13;6.75;;;6.50;81.80;;;;;;5079488;28;20054;-81
2022/04/29 03:44:45;;;;;;;10.32;6.03;;;6.50;81.60;;;;;;5096354;28;20109;-83
2022/04/29 03:47:11;;;;;;;9.85;6.05;;;6.50;81.80;;;;;;5113014;28;20487;-82
2022/04/29 03:49:37;;;;;;;7.28;4.93;;;6.50;81.60;;;;;;5096018;28;20039;-79
2022/04/29 03:52:03;;;;;;;7.75;6.10;;;6.50;81.60;;;;;;5096073;28;20035;-79
2022/04/29 03:54:30;;;;;;;9.98;6.68;;;6.60;81.80;;;;;;5112969;28;20092;-79
2022/04/29 03:56:56;;;;;;;10.68;5.80;;;6.60;82.30;;;;;;5062719;28;20079;-81
2022/04/29 03:59:22;;;;;;;12.38;6.30;;;6.60;81.80;;;;;;5112680;28;20051;-81
2022/04/29 04:01:48;;;;;;;8.48;4.97;;;6.60;82.10;;;;;;5113057;28;20039;-82
2022/04/29 04:04:14;;;;;;;10.77;6.88;;;6.60;81.90;;;;;;5095637;28;20453;-82
2022/04/29 04:06:52;;;;;;;9.82;6.05;;;6.60;82.30;;;;;;5095486;28;20071;-80
2022/04/29 04:09:22;;;;;;;5.38;4.82;;;6.60;82.00;;;;;;5080767;28;20046;-81
2022/04/29 04:11:51;;;;;;;7.57;3.92;;;6.70;81.80;;;;;;5112611;28;20032;-80
2022/04/29 04:14:18;;;;;;;9.68;6.07;;;6.80;81.70;;;;;;5112397;28;20075;-82
2022/04/29 04:16:45;;;;;;;7.90;5.57;;;6.80;82.20;;;;;;5095490;28;20043;-81
2022/04/29 04:19:10;;;;;;;5.90;4.70;;;6.80;82.20;;;;;;5095743;28;20075;-81
2022/04/29 04:21:36;;;;;;;7.90;5.00;;;6.80;81.80;;;;;;5095717;28;20031;-79
2022/04/29 04:24:02;;;;;;;6.80;5.28;;;6.80;81.70;;;;;;5078914;28;20050;-81
2022/04/29 04:26:28;;;;;;;8.65;5.03;;;6.80;81.70;;;;;;5095647;28;20039;-80
2022/04/29 04:28:54;;;;;;;8.52;4.68;;;6.90;81.50;;;;;;5112900;27;20043;-82
2022/04/29 04:31:21;;;;;;;5.80;5.00;;;6.90;81.50;;;;;;5099233;28;20043;-82
2022/04/29 04:33:48;;;;;;;6.38;4.40;;;6.90;81.40;;;;;;5099047;28;20042;-80
2022/04/29 04:36:14;;;;;;;7.50;4.88;;;6.90;81.30;;;;;;5116153;28;20050;-79
2022/04/29 04:38:39;;;;;;;8.10;5.10;;;6.90;81.30;;;;;;5082074;28;20387;-79
2022/04/29 04:41:07;;;;;;;7.68;5.28;;;6.90;81.30;;;;;;5116048;28;20039;-81
2022/04/29 04:43:33;;;;;;;8.60;4.95;;;6.90;81.20;;;;;;5115893;28;20039;-81
2022/04/29 04:45:59;;;;;;;5.88;5.03;;;6.90;81.50;;;;;;5099142;28;20092;-79
2022/04/29 04:48:24;;;;;;;8.63;5.60;;;6.80;81.90;;;;;;5098898;28;20484;-82
2022/04/29 04:50:50;;;;;;;8.75;5.72;;;6.80;81.70;;;;;;5115648;28;20050;-81
2022/04/29 04:53:16;;;;;;;7.38;5.32;;;6.80;81.50;;;;;;5115798;28;20035;-82
2022/04/29 04:55:41;;;;;;;7.30;4.97;;;6.80;81.40;;;;;;5098446;28;20070;-80
2022/04/29 04:58:09;;;;;;;9.10;5.45;;;6.80;81.70;;;;;;5115444;28;20420;-80
2022/04/29 05:00:35;;;;;;;6.43;5.43;;;6.80;81.40;;;;;;5098321;28;20121;-80
2022/04/29 05:03:01;;;;;;;9.63;5.68;;;6.90;81.80;;;;;;5098488;28;20043;-82
2022/04/29 05:05:27;;;;;;;8.25;6.32;;;6.80;81.80;;;;;;5082106;28;20039;-79
2022/04/29 05:07:53;;;;;;;10.30;5.30;;;6.90;81.80;;;;;;5115658;28;20075;-82
2022/04/29 05:10:19;;;;;;;9.35;5.38;;;6.90;81.60;;;;;;5081429;28;20036;-81
2022/04/29 05:12:46;;;;;;;5.38;4.72;;;6.90;81.50;;;;;;5115164;28;20050;-80
2022/04/29 05:15:16;;;;;;;8.55;6.57;;;7.00;81.50;;;;;;5115441;28;20095;-81
2022/04/29 05:17:43;;;;;;;10.60;6.65;;;7.00;81.40;;;;;;5115405;28;20563;-80
2022/04/29 05:20:11;;;;;;;8.75;5.55;;;7.10;81.40;;;;;;5081448;28;20046;-81
2022/04/29 05:22:37;;;;;;;7.65;4.97;;;7.10;81.80;;;;;;5081594;28;20129;-80
2022/04/29 05:25:04;;;;;;;7.45;5.85;;;7.10;81.50;;;;;;5098337;28;20039;-81
2022/04/29 05:27:30;;;;;;;10.07;6.00;;;7.20;81.40;;;;;;5115306;28;20046;-81
2022/04/29 05:29:57;;;;;;;8.77;5.60;;;7.20;81.40;;;;;;5118352;27;20047;-82
2022/04/29 05:32:24;;;;;;;9.68;5.68;;;7.30;81.40;;;;;;5101981;27;20077;-82
2022/04/29 05:34:50;;;;;;;9.07;5.53;;;7.30;81.40;;;;;;5102351;27;20062;-79
2022/04/29 05:37:19;;;;;;;7.57;5.38;;;7.30;81.40;;;;;;5102085;27;20039;-81
2022/04/29 05:42:29;;;;;;;5.90;4.63;;;7.40;81.10;;;;;;5090945;27;20165;-79
2022/04/29 05:44:55;;;;;;;7.40;4.88;;;7.40;81.20;;;;;;5085062;27;20047;-80
2022/04/29 05:47:21;;;;;;;10.25;6.30;;;7.40;81.10;;;;;;5101817;27;20045;-80
2022/04/29 05:49:47;;;;;;;7.20;6.32;;;7.50;81.10;;;;;;5101937;27;20038;-80
2022/04/29 05:52:13;;;;;;;10.48;6.07;;;7.40;81.00;;;;;;5084882;27;20086;-82
2022/04/29 05:54:39;;;;;;;9.13;5.65;;;7.50;81.10;;;;;;5101478;27;20027;-81
2022/04/29 05:57:05;;;;;;;12.70;6.03;;;7.50;81.10;;;;;;5118536;27;20457;-81
2022/04/29 05:59:31;;;;;;;8.38;5.40;;;7.50;80.90;;;;;;5101549;27;20039;-81
2022/04/29 06:01:57;;;;;;;8.77;5.57;;;7.50;81.20;;;;;;5118755;27;20474;-80
2022/04/29 06:04:23;;;;;;;7.90;5.32;;;7.60;81.00;;;;;;5101240;27;20043;-80
2022/04/29 06:06:50;;;;;;;7.25;5.35;;;7.60;80.80;;;;;;5101300;27;20035;-82
2022/04/29 06:09:15;;;;;;;6.20;4.93;;;7.70;80.90;;;;;;5101434;27;20454;-83
2022/04/29 06:11:42;;;;;;;8.57;5.38;;;7.70;80.90;;;;;;5101458;27;20075;-84
2022/04/29 06:14:07;;;;;;;6.38;5.03;;;7.80;80.80;;;;;;5118594;27;20459;-81
2022/04/29 06:16:33;;;;;;;6.70;5.05;;;7.90;80.70;;;;;;5101224;27;20039;-81
2022/04/29 06:18:59;;;;;;;6.57;4.88;;;7.90;80.60;;;;;;5101555;27;20046;-83
2022/04/29 06:21:25;;;;;;;7.25;4.47;;;8.00;80.70;;;;;;5101341;27;20087;-80
2022/04/29 06:23:51;;;;;;;10.82;5.10;;;8.10;80.40;;;;;;5110981;28;20410;-81
2022/04/29 06:26:17;;;;;;;5.57;4.45;;;8.10;80.30;;;;;;5108285;27;20050;-79
2022/04/29 06:28:43;;;;;;;5.82;4.47;;;8.20;80.20;;;;;;5087633;27;20074;-82
2022/04/29 06:31:09;;;;;;;8.15;4.72;;;8.30;80.00;;;;;;5086513;27;20074;-81
2022/04/29 06:33:36;;;;;;;6.82;4.78;;;8.30;79.90;;;;;;5085436;27;20039;-82
2022/04/29 06:36:03;;;;;;;5.32;3.78;;;8.40;79.70;;;;;;5086972;27;20116;-82
2022/04/29 06:38:29;;;;;;;8.80;4.88;;;8.50;79.40;;;;;;5101865;27;20054;-82
2022/04/29 06:40:55;;;;;;;6.03;3.72;;;8.50;78.90;;;;;;5086289;27;20043;-80
2022/04/29 06:43:22;;;;;;;5.78;4.20;;;8.50;78.70;;;;;;5085808;27;20497;-79
2022/04/29 06:45:48;;;;;;;4.68;4.18;;;8.60;78.80;;;;;;5105072;27;20039;-79
2022/04/29 06:48:14;;;;;;;8.93;3.83;;;8.60;78.70;;;;;;5100085;27;20529;-78
2022/04/29 06:50:40;;;;;;;8.52;4.93;;;8.70;78.60;;;;;;5105971;27;20039;-80
2022/04/29 06:53:06;;;;;;;6.97;4.28;;;8.70;78.50;;;;;;5071441;27;20031;-81
2022/04/29 06:55:36;;;;;;;6.32;3.72;;;8.70;78.40;;;;;;5083925;27;20456;-80
2022/04/29 06:58:02;;;;;;;6.00;4.25;;;8.70;78.40;;;;;;5104067;27;20078;-81
2022/04/29 07:00:27;;;;;;;5.20;3.38;;;8.80;78.30;;;;;;5069635;27;20079;-81
2022/04/29 07:02:54;;;;;;;4.80;3.65;;;8.80;78.10;;;;;;5069349;27;20129;-79
2022/04/29 07:05:20;;;;;;;7.57;3.67;;;8.90;77.90;;;;;;5084455;27;20043;-81
2022/04/29 07:07:49;;;;;;;5.72;3.20;;;9.00;77.70;;;;;;5071599;27;20108;-82
2022/04/29 07:10:15;;;;;;;6.10;3.47;;;9.00;77.40;;;;;;5068931;27;20071;-80
2022/04/29 07:12:43;;;;;;;7.35;3.20;;;9.00;76.80;;;;;;5105763;27;20039;-80
2022/04/29 07:15:10;;;;;;;5.28;3.38;;;9.10;76.50;;;;;;5088216;27;20072;-83
2022/04/29 07:17:36;;;;;;;6.68;3.88;;;9.10;76.20;;;;;;5106422;27;21217;-81
2022/04/29 07:20:01;;;;;;;9.27;3.35;;;9.20;75.90;;;;;;5070342;27;20131;-82
2022/04/29 07:22:28;;;;;;;4.93;2.47;;;9.30;75.50;;;;;;5082294;28;20511;-82
2022/04/29 07:24:53;;;;;;;4.18;3.05;;;9.40;74.90;;;;;;5101458;27;20490;-81
2022/04/29 07:27:19;;;;;;;3.50;2.83;;;9.50;74.40;;;;;;5061376;27;20039;-82
2022/04/29 07:29:44;;;;;;;7.22;3.60;;;9.50;74.20;;;;;;5085058;27;20476;-83
2022/04/29 07:32:11;;;;;;;7.57;2.70;;;9.60;74.30;;;;;;5069659;28;20028;-81
2022/04/29 07:42:49;;;;;;;;;;;9.80;72.10;;;;;;5083306;27;20130;-80
2022/04/29 07:45:15;;;;;;;5.38;2.67;;;9.80;72.00;;;;;;5097229;27;19998;-81
2022/04/29 07:47:41;;;;;;;4.55;2.10;;;9.90;72.00;;;;;;5106042;27;20041;-80
2022/04/29 07:50:07;;;;;;;4.53;2.50;;;9.90;72.10;;;;;;5084877;27;20044;-82
2022/04/29 07:52:34;;;;;;;5.10;2.35;;;9.90;72.20;;;;;;5081760;27;20123;-82
2022/04/29 07:55:00;;;;;;;4.00;2.03;;;10.00;72.20;;;;;;5082689;28;20035;-81
2022/04/29 07:57:26;;;;;;;5.97;2.47;;;10.00;72.20;;;;;;5070843;27;20043;-83
2022/04/29 07:59:52;;;;;;;3.58;1.95;;;10.00;71.90;;;;;;5101699;27;20115;-83
2022/04/29 08:02:20;;;;;;;3.53;2.10;;;10.10;71.90;;;;;;5067244;27;20053;-81
2022/04/29 08:04:46;;;;;;;3.42;2.58;;;10.10;71.30;;;;;;5087631;27;20129;-80
2022/04/29 08:07:12;;;;;;;3.83;1.95;;;10.20;71.50;;;;;;5103174;27;20130;-83
2022/04/29 08:09:38;;;;;;;5.55;2.40;;;10.30;71.50;;;;;;5069253;28;20039;-81
2022/04/29 08:12:05;;;;;;;4.72;2.67;;;10.30;71.70;;;;;;5101204;28;20120;-82
2022/04/29 08:14:31;;;;;;;4.97;2.88;;;10.40;71.50;;;;;;5045675;28;20472;-81
2022/04/29 08:16:57;;;;;;;5.50;3.15;;;10.50;71.00;;;;;;5078875;28;20043;-81
2022/04/29 08:19:23;;;;;;;4.57;2.80;;;10.50;70.20;;;;;;5045469;28;20109;-82
2022/04/29 08:21:49;;;;;;;4.25;2.88;;;10.50;69.70;;;;;;5078701;28;20130;-85
2022/04/29 08:24:15;;;;;;;4.80;3.03;;;10.50;69.70;;;;;;5078959;28;20040;-82
2022/04/29 08:26:41;;;;;;;5.43;3.40;;;10.50;69.20;;;;;;5062381;28;20104;-82
2022/04/29 08:29:07;;;;;;;9.00;3.88;;;10.50;69.20;;;;;;5088943;28;20066;-82
2022/04/29 08:31:34;;;;;;;6.82;3.35;;;10.50;69.90;;;;;;5083143;28;20054;-81
2022/04/29 08:34:00;;;;;;;7.82;3.35;;;10.50;69.70;;;;;;5088340;28;20039;-82
2022/04/29 08:36:26;;;;;;;5.05;3.13;;;10.40;69.60;;;;;;5081958;28;20411;-82
2022/04/29 08:38:52;;;;;;;5.80;3.10;;;10.40;69.20;;;;;;5088325;28;20043;-83
2022/04/29 08:41:20;;;;;;;4.60;3.33;;;10.30;68.80;;;;;;5092806;28;20039;-83
2022/04/29 08:43:48;;;;;;;6.28;3.95;;;10.30;69.40;;;;;;5090494;28;20539;-82
2022/04/29 08:46:15;;;;;;;6.70;3.60;;;10.20;69.40;;;;;;5099891;28;21023;-83
2022/04/29 08:48:43;;;;;;;5.80;3.50;;;10.20;69.10;;;;;;5102127;28;20027;-83
2022/04/29 08:51:09;;;;;;;7.88;3.08;;;10.10;69.70;;;;;;5104796;28;20499;-82
2022/04/29 08:53:35;;;;;;;4.18;2.92;;;10.20;70.00;;;;;;5076969;28;20036;-82
2022/04/29 08:58:46;;;;;;;;;;;10.20;69.00;;;;;;5079986;28;20051;-83
2022/04/29 09:01:16;;;;;;;6.22;3.25;;;10.30;69.80;;;;;;5081204;28;19923;-80
2022/04/29 09:03:43;;;;;;;4.13;3.20;;;10.30;69.60;;;;;;5083012;27;20403;-81
2022/04/29 09:06:09;;;;;;;7.20;3.20;;;10.30;69.50;;;;;;5089289;27;20495;-82
2022/04/29 09:08:40;;;;;;;10.52;3.15;;;10.30;68.30;;;;;;5090062;27;20202;-81
2022/04/29 09:11:07;;;;;;;3.47;2.90;;;10.40;68.30;;;;;;5092573;27;20070;-85
2022/04/29 09:13:37;;;;;;;5.95;3.60;;;10.40;67.40;;;;;;5074335;27;20082;-82
2022/04/29 09:16:13;;;;;;;5.22;3.20;;;10.30;67.70;;;;;;5109406;27;20047;-82
2022/04/29 09:18:46;;;;;;;6.88;4.10;;;10.40;68.00;;;;;;5091536;27;20057;-81
2022/04/29 09:21:14;;;;;;;5.60;3.05;;;10.40;68.50;;;;;;5094477;27;20092;-82
2022/04/29 09:23:43;;;;;;;7.20;3.13;;;10.40;68.70;;;;;;5086782;27;20502;-84
2022/04/29 09:26:20;;;;;;;3.60;3.17;;;10.50;68.20;;;;;;5104786;27;20164;-81
2022/04/29 09:28:47;;;;;;;4.95;3.50;;;10.60;68.50;;;;;;5099660;27;20084;-80
2022/04/29 09:31:14;;;;;;;8.45;3.63;;;10.60;68.40;;;;;;5106742;27;20066;-82
2022/04/29 09:33:40;;;;;;;5.68;3.25;;;10.70;68.20;;;;;;5102967;27;20039;-82
2022/04/29 09:36:06;;;;;;;5.65;3.65;;;10.70;67.50;;;;;;5105540;27;20083;-81
2022/04/29 09:41:25;;;;;;;7.55;3.63;;;10.70;67.70;;;;;;5087279;27;20528;-80
2022/04/29 09:43:51;;;;;;;5.30;3.35;;;10.70;68.00;;;;;;5112613;27;20050;-81
2022/04/29 09:46:25;;;;;;;5.93;3.65;;;10.70;67.60;;;;;;5090216;27;20608;-82
2022/04/29 09:48:58;;;;;;;8.18;3.58;;;10.70;66.60;;;;;;5101069;27;20042;-81
2022/04/29 09:51:46;;;;;;;4.35;3.50;;;10.70;67.10;;;;;;5103846;27;20090;-83
2022/04/29 09:54:12;;;;;;;9.10;4.20;;;10.70;67.20;;;;;;5086844;27;20078;-82
2022/04/29 09:56:38;;;;;;;11.05;3.65;;;10.70;67.40;;;;;;5108114;28;20455;-83
2022/04/29 09:59:06;;;;;;;5.57;3.53;;;10.70;67.40;;;;;;5068506;28;20051;-83
2022/04/29 10:01:34;;;;;;;8.05;3.33;;;10.70;67.50;;;;;;5109070;27;20040;-82
2022/04/29 10:04:00;;;;;;;9.50;4.35;;;10.60;67.80;;;;;;5090808;27;20048;-81
2022/04/29 10:06:28;;;;;;;4.68;4.28;;;10.60;67.80;;;;;;5090925;27;20513;-81
2022/04/29 10:08:57;;;;;;;7.07;3.80;;;10.50;67.90;;;;;;5082880;27;20062;-82
2022/04/29 10:11:26;;;;;;;6.13;4.03;;;10.50;68.10;;;;;;5088174;27;20035;-83
2022/04/29 10:13:53;;;;;;;6.03;4.38;;;10.50;68.40;;;;;;5087198;27;20044;-84
2022/04/29 10:16:19;;;;;;;5.10;3.58;;;10.50;68.40;;;;;;5087965;27;20039;-83
2022/04/29 10:21:46;;;;;;;7.82;4.28;;;10.50;68.00;;;;;;5109034;27;20114;-83
2022/04/29 10:24:12;;;;;;;6.82;3.78;;;10.50;68.00;;;;;;5104267;27;20039;-84
2022/04/29 10:26:39;;;;;;;5.47;4.03;;;10.50;68.10;;;;;;5090039;28;20040;-83
2022/04/29 10:29:06;;;;;;;8.13;4.07;;;10.50;68.00;;;;;;5084782;27;20077;-83
2022/04/29 10:31:32;;;;;;;8.27;4.20;;;10.50;67.70;;;;;;5089019;27;20043;-83
2022/04/29 10:34:27;;;;;;;3.85;3.42;;;10.50;67.90;;;;;;5088774;27;20039;-82
2022/04/29 10:36:53;;;;;;;7.55;3.80;;;10.50;67.70;;;;;;5090684;27;20039;-82
2022/04/29 10:39:21;;;;;;;6.53;3.90;;;10.50;67.40;;;;;;5108768;27;20141;-84
2022/04/29 10:42:02;;;;;;;7.68;4.35;;;10.40;67.40;;;;;;5069964;27;20122;-84
2022/04/29 10:44:29;;;;;;;6.32;3.38;;;10.40;67.90;;;;;;5107057;27;20122;-82
2022/04/29 10:46:55;;;;;;;7.07;4.55;;;10.40;67.40;;;;;;5092314;28;20046;-83
2022/04/29 10:49:30;;;;;;;7.65;3.60;;;10.50;67.10;;;;;;5091367;27;20542;-84
2022/04/29 10:51:59;;;;;;;7.75;3.90;;;10.50;67.40;;;;;;5072542;27;20042;-83
2022/04/29 10:54:34;;;;;;;17.30;5.55;;;10.50;67.60;;;;;;5089522;28;20032;-83
2022/04/29 10:57:07;;;;;;;9.48;4.78;;;10.50;67.90;;;;;;5087182;27;20049;-81
2022/04/29 10:59:49;;;;;;;7.55;4.82;;;10.70;67.60;;;;;;5083967;28;20126;-81
2022/04/29 11:02:29;;;;;;;7.68;4.07;;;10.80;67.50;;;;;;5099639;27;20046;-82
2022/04/29 11:04:59;;;;;;;6.43;3.90;;;10.80;67.70;;;;;;5105378;27;20042;-83
2022/04/29 11:07:37;;;;;;;7.60;3.55;;;10.80;67.00;;;;;;5105333;27;20126;-81
2022/04/29 11:10:20;;;;;;;5.20;3.60;;;10.80;67.30;;;;;;5107051;27;20069;-82
2022/04/29 11:13:00;;;;;;;9.25;4.45;;;10.80;66.30;;;;;;5102399;27;20043;-83
2022/04/29 11:16:27;;;;;;;10.65;4.30;;;10.80;66.90;;;;;;5089611;27;20055;-83
2022/04/29 11:19:18;;;;;;;6.38;3.90;;;10.80;67.60;;;;;;5069175;27;20487;-83
2022/04/29 11:24:41;;;;;;;6.28;3.63;;;10.80;67.40;;;;;;5089505;27;20095;-82
2022/04/29 11:27:06;;;;;;;4.53;3.28;;;10.80;67.00;;;;;;5098077;27;20040;-85
2022/04/29 11:29:44;;;;;;;6.65;3.35;;;10.80;67.00;;;;;;5086887;28;20115;-84
2022/04/29 11:32:10;;;;;;;7.78;3.50;;;10.90;66.40;;;;;;5104066;27;20043;-84
2022/04/29 11:35:04;;;;;;;5.28;3.28;;;10.90;66.50;;;;;;5090834;27;20039;-84
2022/04/29 11:37:33;;;;;;;6.40;3.35;;;11.00;66.20;;;;;;5086585;27;20122;-83
2022/04/29 11:40:07;;;;;;;6.05;3.00;;;11.10;65.90;;;;;;5101394;27;20127;-84
2022/04/29 11:42:34;;;;;;;3.78;2.67;;;11.00;65.30;;;;;;5085826;27;20659;-84
2022/04/29 11:45:05;;;;;;;5.68;3.75;;;11.00;66.00;;;;;;5072036;27;20085;-84
2022/04/29 11:47:32;;;;;;;5.40;3.05;;;11.00;66.50;;;;;;5089730;27;20117;-84
2022/04/29 11:49:58;;;;;;;7.65;3.33;;;11.00;67.10;;;;;;5088584;27;20039;-83
2022/04/29 11:52:31;;;;;;;3.35;3.05;;;11.00;67.60;;;;;;5080244;28;20083;-84
2022/04/29 11:55:00;;;;;;;5.53;3.00;;;11.00;67.30;;;;;;5089232;27;20076;-82
2022/04/29 11:57:27;;;;;;;4.72;3.15;;;11.00;66.50;;;;;;5105684;28;20054;-84
2022/04/29 11:59:53;;;;;;;5.07;3.08;;;10.90;67.00;;;;;;5084455;28;20506;-83
2022/04/29 12:02:21;;;;;;;5.00;3.15;;;11.00;67.80;;;;;;5103570;27;20039;-83
2022/04/29 12:05:00;;;;;;;5.00;3.40;;;11.00;67.70;;;;;;5073193;27;20450;-83
2022/04/29 12:07:29;;;;;;;5.10;3.03;;;11.00;67.90;;;;;;5086462;28;20054;-83
2022/04/29 12:09:55;;;;;;;6.10;3.20;;;11.00;67.90;;;;;;5103938;27;20050;-84
2022/04/29 12:12:32;;;;;;;5.55;3.40;;;11.00;68.20;;;;;;5067307;28;20369;-84
2022/04/29 12:14:59;;;;;;;5.38;2.72;;;11.00;68.30;;;;;;5085519;28;20028;-84
2022/04/29 12:17:32;;;;;;;5.53;3.10;;;11.00;68.10;;;;;;5071372;28;20465;-84
2022/04/29 12:19:59;;;;;;;6.38;2.67;;;11.00;68.10;;;;;;5082463;28;20043;-84
2022/04/29 12:22:33;;;;;;;4.60;2.63;;;11.00;68.00;;;;;;5065647;27;20071;-83
2022/04/29 12:25:23;;;;;;;8.05;3.25;;;11.00;67.70;;;;;;5084364;28;20477;-83
2022/04/29 12:28:11;;;;;;;5.47;3.25;;;11.00;67.50;;;;;;5081929;28;20047;-82
2022/04/29 12:36:48;;;;;;;8.52;3.20;;;11.30;66.40;;;;;;5097586;28;20100;-82
2022/04/29 12:39:15;;;;;;;8.32;3.53;;;11.40;66.80;;;;;;5107487;27;20491;-83
2022/04/29 12:41:42;;;;;;;5.13;3.25;;;11.50;67.00;;;;;;5069631;27;20045;-82
2022/04/29 12:45:03;;;;;;;5.50;3.47;;;11.50;66.70;;;;;;5075013;27;20103;-82
2022/04/29 12:47:01;;;;;;;8.40;3.38;;;11.50;66.90;;;;;;5103659;27;20040;-82
2022/04/29 12:49:27;;;;;;;7.93;3.55;;;11.50;67.30;;;;;;5079381;27;20047;-83
2022/04/29 12:52:00;;;;;;;6.07;3.42;;;11.60;66.90;;;;;;5085482;27;20047;-82
2022/04/29 12:54:27;;;;;;;7.53;4.57;;;11.70;66.80;;;;;;5088491;27;20035;-83
2022/04/29 12:56:53;;;;;;;7.07;3.42;;;11.90;66.40;;;;;;5101586;27;20047;-83
2022/04/29 12:59:23;;;;;;;5.57;3.60;;;11.80;65.40;;;;;;5107618;27;20133;-82
2022/04/29 13:01:50;;;;;;;8.07;3.47;;;11.80;65.50;;;;;;5084468;27;21288;-81
2022/04/29 13:04:16;;;;;;;5.50;2.92;;;11.70;65.50;;;;;;5088946;27;20372;-84
2022/04/29 13:06:41;;;;;;;5.82;3.30;;;11.60;65.80;;;;;;5103331;27;20075;-81
2022/04/29 13:09:07;;;;;;;4.97;3.47;;;11.60;66.00;;;;;;5061029;27;20070;-83
2022/04/29 13:11:33;;;;;;;5.35;3.13;;;11.60;66.20;;;;;;5091222;27;20032;-83
2022/04/29 13:13:59;;;;;;;6.35;3.72;;;11.50;66.80;;;;;;5065730;27;20484;-82
2022/04/29 13:16:25;;;;;;;8.38;3.88;;;11.60;66.50;;;;;;5079120;27;20039;-82
2022/04/29 13:18:55;;;;;;;8.27;3.45;;;11.60;66.30;;;;;;5072488;27;20043;-82
2022/04/29 13:21:21;;;;;;;4.07;3.65;;;11.70;66.30;;;;;;5105785;27;20088;-82
2022/04/29 13:23:47;;;;;;;5.85;3.45;;;11.70;66.90;;;;;;5089804;27;20035;-82
2022/04/29 13:26:14;;;;;;;7.18;3.42;;;11.70;66.80;;;;;;5068871;27;20042;-82
2022/04/29 13:28:41;;;;;;;8.20;3.40;;;11.70;66.90;;;;;;5103364;27;20847;-82